Time;durP1;ratioP1;P1;durP2;ratioP2;P2;SDS_P1;SDS_P2;PMS_P1;PMS_P2;Temp;Humidity;BMP_temperature;BMP_pressure;BME280_temperature;BME280_humidity;BME280_pressure;Samples;Min_cycle;Max_cycle;Signal;HPM_P1;HPM_P2
2022/03/16 00:00:05;;;;;;;1.87;1.07;;;;;;;;;;4993766;28;20427;-69
2022/03/16 00:02:31;;;;;;;2.47;1.10;;;;;;;;;;4994825;28;20450;-68
2022/03/16 00:04:58;;;;;;;1.87;1.10;;;;;;;;;;4995541;28;20934;-68
2022/03/16 00:07:24;;;;;;;2.73;1.10;;;;;;;;;;4995641;28;20453;-69
2022/03/16 00:09:50;;;;;;;2.80;1.30;;;;;;;;;;4993617;28;20802;-69
2022/03/16 00:12:16;;;;;;;2.70;1.30;;;;;;;;;;4994461;28;20442;-69
2022/03/16 00:14:43;;;;;;;2.80;1.50;;;;;;;;;;4995454;28;20426;-69
2022/03/16 00:17:09;;;;;;;3.03;1.40;;;;;;;;;;4995469;28;20515;-70
2022/03/16 00:19:36;;;;;;;1.93;1.10;;;;;;;;;;4993627;28;20437;-69
2022/03/16 00:22:03;;;;;;;2.07;1.30;;;;;;;;;;4992858;28;20540;-69
2022/03/16 00:24:29;;;;;;;4.27;1.73;;;;;;;;;;4995552;28;20418;-71
2022/03/16 00:26:55;;;;;;;1.73;0.90;;;;;;;;;;4995219;28;20450;-69
2022/03/16 00:29:21;;;;;;;3.10;1.13;;;;;;;;;;4993985;28;20465;-69
2022/03/16 00:31:47;;;;;;;1.87;1.23;;;;;;;;;;4996508;28;20469;-69
2022/03/16 00:34:14;;;;;;;2.27;1.27;;;;;;;;;;4995171;28;20440;-68
2022/03/16 00:36:40;;;;;;;3.20;1.10;;;;;;;;;;4995111;28;20414;-69
2022/03/16 00:39:06;;;;;;;6.87;1.30;;;;;;;;;;4993749;28;20488;-70
2022/03/16 00:41:33;;;;;;;1.70;1.00;;;;;;;;;;4994909;28;20476;-68
2022/03/16 00:44:00;;;;;;;8.90;1.50;;;;;;;;;;4994948;28;20453;-68
2022/03/16 00:46:26;;;;;;;2.30;1.20;;;;;;;;;;4994586;28;20441;-68
2022/03/16 00:48:52;;;;;;;2.43;1.20;;;;;;;;;;4993444;28;20438;-68
2022/03/16 00:51:18;;;;;;;4.67;1.20;;;;;;;;;;4995928;28;20427;-68
2022/03/16 00:53:45;;;;;;;6.03;1.20;;;;;;;;;;4994588;28;20415;-68
2022/03/16 00:56:12;;;;;;;1.73;1.17;;;;;;;;;;4994539;28;20415;-69
2022/03/16 00:58:38;;;;;;;4.17;1.07;;;;;;;;;;4993499;28;20489;-68
2022/03/16 01:01:08;;;;;;;1.83;1.03;;;;;;;;;;4998741;28;20429;-69
2022/03/16 01:03:35;;;;;;;2.07;1.20;;;;;;;;;;4975200;28;20404;-69
2022/03/16 01:06:01;;;;;;;1.77;1.10;;;;;;;;;;4980337;28;20426;-68
2022/03/16 01:08:28;;;;;;;6.33;1.40;;;;;;;;;;4993473;28;20569;-69
2022/03/16 01:10:54;;;;;;;2.03;1.13;;;;;;;;;;4994303;28;20538;-70
2022/03/16 01:13:20;;;;;;;1.60;1.10;;;;;;;;;;4994336;28;20498;-70
2022/03/16 01:15:47;;;;;;;2.27;1.37;;;;;;;;;;4993790;28;20436;-70
2022/03/16 01:18:15;;;;;;;2.53;1.30;;;;;;;;;;4994388;28;20449;-70
2022/03/16 01:20:41;;;;;;;3.27;1.23;;;;;;;;;;4993880;28;20434;-70
2022/03/16 01:23:07;;;;;;;2.30;1.30;;;;;;;;;;4994324;28;20494;-70
2022/03/16 01:25:33;;;;;;;2.20;1.27;;;;;;;;;;4993299;28;20512;-70
2022/03/16 01:27:59;;;;;;;3.67;1.40;;;;;;;;;;4993930;28;20501;-70
2022/03/16 01:30:25;;;;;;;2.40;1.27;;;;;;;;;;4992292;28;20819;-70
2022/03/16 01:32:52;;;;;;;1.50;1.10;;;;;;;;;;4993949;28;20493;-70
2022/03/16 01:35:19;;;;;;;2.17;1.27;;;;;;;;;;4994251;28;20501;-70
2022/03/16 01:37:45;;;;;;;1.63;1.00;;;;;;;;;;4993654;28;20461;-70
2022/03/16 01:40:12;;;;;;;2.27;1.27;;;;;;;;;;4993359;28;20426;-70
2022/03/16 01:42:38;;;;;;;1.60;1.00;;;;;;;;;;4995113;28;20411;-70
2022/03/16 01:45:05;;;;;;;1.50;1.10;;;;;;;;;;4992358;28;20923;-70
2022/03/16 01:47:31;;;;;;;1.97;1.30;;;;;;;;;;4993391;28;20469;-69
2022/03/16 01:49:57;;;;;;;1.50;0.90;;;;;;;;;;4993003;28;20418;-69
2022/03/16 01:52:26;;;;;;;2.10;1.03;;;;;;;;;;4993714;28;20442;-69
2022/03/16 01:54:53;;;;;;;2.40;1.20;;;;;;;;;;4992732;28;20434;-69
2022/03/16 01:57:19;;;;;;;3.17;1.37;;;;;;;;;;4993646;28;20423;-68
2022/03/16 01:59:46;;;;;;;1.63;0.90;;;;;;;;;;4992391;28;20437;-68
2022/03/16 02:02:12;;;;;;;1.97;1.10;;;;;;;;;;4993452;28;20442;-71
2022/03/16 02:04:39;;;;;;;2.03;1.27;;;;;;;;;;4992882;28;20504;-71
2022/03/16 02:07:05;;;;;;;2.03;1.23;;;;;;;;;;4992489;28;20461;-71
2022/03/16 02:09:32;;;;;;;3.10;1.17;;;;;;;;;;4992406;28;20418;-68
2022/03/16 02:11:58;;;;;;;1.60;1.03;;;;;;;;;;4993159;28;20422;-69
2022/03/16 02:14:24;;;;;;;4.93;1.50;;;;;;;;;;4992149;28;20776;-68
2022/03/16 02:16:51;;;;;;;2.13;1.00;;;;;;;;;;4993202;28;20428;-69
2022/03/16 02:19:17;;;;;;;4.13;1.10;;;;;;;;;;4992871;28;20934;-69
2022/03/16 02:21:49;;;;;;;2.57;1.30;;;;;;;;;;4993018;28;20442;-69
2022/03/16 02:24:15;;;;;;;1.73;1.20;;;;;;;;;;4992104;28;20449;-69
2022/03/16 02:26:41;;;;;;;2.00;1.17;;;;;;;;;;4992961;28;20564;-68
2022/03/16 02:29:07;;;;;;;1.70;1.00;;;;;;;;;;4992516;28;20896;-68
2022/03/16 02:31:33;;;;;;;5.33;1.40;;;;;;;;;;4992917;28;20426;-68
2022/03/16 02:33:59;;;;;;;12.83;1.20;;;;;;;;;;4991952;28;20434;-68
2022/03/16 02:36:26;;;;;;;2.63;1.20;;;;;;;;;;4992682;28;20462;-68
2022/03/16 02:38:52;;;;;;;3.57;1.47;;;;;;;;;;4992528;28;20411;-69
2022/03/16 02:41:18;;;;;;;2.07;1.23;;;;;;;;;;4992714;28;20422;-68
2022/03/16 02:43:44;;;;;;;2.00;1.37;;;;;;;;;;4991819;28;20406;-69
2022/03/16 02:46:10;;;;;;;2.00;1.20;;;;;;;;;;4992282;28;20426;-69
2022/03/16 02:48:36;;;;;;;1.93;0.93;;;;;;;;;;4992578;28;20466;-69
2022/03/16 02:51:03;;;;;;;2.17;1.30;;;;;;;;;;4992372;28;20598;-69
2022/03/16 02:53:29;;;;;;;2.00;1.10;;;;;;;;;;4991913;28;20513;-68
2022/03/16 02:55:55;;;;;;;1.60;1.00;;;;;;;;;;4992541;28;20415;-70
2022/03/16 02:58:22;;;;;;;4.00;1.17;;;;;;;;;;4992307;28;20498;-69
2022/03/16 03:00:48;;;;;;;1.70;1.10;;;;;;;;;;4992234;28;20476;-68
2022/03/16 03:03:14;;;;;;;2.63;1.33;;;;;;;;;;4991763;28;20526;-67
2022/03/16 03:05:40;;;;;;;1.80;1.10;;;;;;;;;;4992392;28;20418;-68
2022/03/16 03:08:06;;;;;;;2.60;1.20;;;;;;;;;;4992342;28;20465;-67
2022/03/16 03:10:33;;;;;;;2.10;1.20;;;;;;;;;;4991892;28;20434;-68
2022/03/16 03:12:59;;;;;;;1.83;1.40;;;;;;;;;;4991655;28;20410;-69
2022/03/16 03:15:25;;;;;;;3.30;1.20;;;;;;;;;;4992122;28;20429;-68
2022/03/16 03:17:51;;;;;;;2.20;1.27;;;;;;;;;;4992499;28;20410;-68
2022/03/16 03:20:18;;;;;;;2.20;1.30;;;;;;;;;;4992005;28;20493;-68
2022/03/16 03:22:44;;;;;;;2.03;1.00;;;;;;;;;;4991727;28;20818;-68
2022/03/16 03:25:12;;;;;;;2.83;1.27;;;;;;;;;;4992313;28;20418;-68
2022/03/16 03:27:38;;;;;;;1.70;1.20;;;;;;;;;;4992156;28;20496;-68
2022/03/16 03:30:05;;;;;;;2.93;1.23;;;;;;;;;;4991703;28;20422;-68
2022/03/16 03:32:31;;;;;;;3.73;1.33;;;;;;;;;;4991222;28;20453;-68
2022/03/16 03:34:57;;;;;;;2.57;1.27;;;;;;;;;;4992003;28;20418;-68
2022/03/16 03:37:30;;;;;;;1.50;0.90;;;;;;;;;;4992229;28;20442;-68
2022/03/16 03:39:57;;;;;;;2.27;1.40;;;;;;;;;;4990750;28;20457;-68
2022/03/16 03:42:23;;;;;;;1.60;1.20;;;;;;;;;;4990582;28;20495;-68
2022/03/16 03:44:49;;;;;;;2.90;1.10;;;;;;;;;;4991520;28;20430;-68
2022/03/16 03:47:15;;;;;;;2.33;1.20;;;;;;;;;;4991786;28;20470;-68
2022/03/16 03:49:42;;;;;;;1.97;1.10;;;;;;;;;;4990867;28;20775;-68
2022/03/16 03:52:08;;;;;;;2.00;1.27;;;;;;;;;;4991195;28;20453;-69
2022/03/16 03:54:35;;;;;;;5.00;1.30;;;;;;;;;;4992270;28;20446;-68
2022/03/16 03:57:01;;;;;;;2.63;1.30;;;;;;;;;;4993368;28;20437;-69
2022/03/16 03:59:27;;;;;;;2.13;1.33;;;;;;;;;;4990622;28;20483;-69
2022/03/16 04:01:53;;;;;;;2.73;1.73;;;;;;;;;;4991970;28;20441;-68
2022/03/16 04:04:20;;;;;;;3.50;1.30;;;;;;;;;;4991816;28;20513;-69
2022/03/16 04:06:46;;;;;;;2.70;1.23;;;;;;;;;;4991806;28;20462;-69
2022/03/16 04:09:12;;;;;;;2.67;1.10;;;;;;;;;;4990637;28;20434;-69
2022/03/16 04:11:38;;;;;;;2.13;1.20;;;;;;;;;;4991937;28;20507;-69
2022/03/16 04:14:05;;;;;;;1.70;1.10;;;;;;;;;;4991872;28;20823;-68
2022/03/16 04:16:31;;;;;;;2.43;1.13;;;;;;;;;;4991944;28;20418;-69
2022/03/16 04:18:57;;;;;;;2.20;1.10;;;;;;;;;;4990557;28;20846;-68
2022/03/16 04:21:24;;;;;;;2.67;1.40;;;;;;;;;;4990909;28;20457;-69
2022/03/16 04:23:50;;;;;;;1.93;1.23;;;;;;;;;;4991832;28;20804;-69
2022/03/16 04:26:17;;;;;;;2.57;1.20;;;;;;;;;;4991897;28;20417;-69
2022/03/16 04:28:43;;;;;;;2.50;1.50;;;;;;;;;;4990122;28;20826;-68
2022/03/16 04:31:09;;;;;;;2.40;1.23;;;;;;;;;;4994021;28;20780;-68
2022/03/16 04:33:37;;;;;;;6.17;1.60;;;;;;;;;;4994754;28;20441;-68
2022/03/16 04:36:03;;;;;;;3.00;1.47;;;;;;;;;;4995251;28;20497;-69
2022/03/16 04:38:29;;;;;;;2.73;1.17;;;;;;;;;;4995081;28;20411;-69
2022/03/16 04:40:55;;;;;;;1.93;1.27;;;;;;;;;;4995353;28;20954;-69
2022/03/16 04:43:22;;;;;;;1.67;1.10;;;;;;;;;;4995105;28;20410;-69
2022/03/16 04:45:48;;;;;;;2.47;1.60;;;;;;;;;;4994777;28;20422;-68
2022/03/16 04:48:14;;;;;;;3.70;1.23;;;;;;;;;;4994978;28;20560;-68
2022/03/16 04:50:41;;;;;;;2.67;1.47;;;;;;;;;;4993599;28;20458;-68
2022/03/16 04:53:07;;;;;;;2.20;1.10;;;;;;;;;;4994479;28;20433;-69
2022/03/16 04:55:36;;;;;;;2.10;1.30;;;;;;;;;;4994597;28;20437;-69
2022/03/16 04:58:06;;;;;;;2.10;0.90;;;;;;;;;;4994359;28;20407;-68
2022/03/16 05:00:37;;;;;;;2.00;1.27;;;;;;;;;;4993198;28;20453;-69
2022/03/16 05:03:03;;;;;;;6.90;1.60;;;;;;;;;;4994444;28;20411;-68
2022/03/16 05:05:30;;;;;;;1.93;1.30;;;;;;;;;;4994658;28;20422;-67
2022/03/16 05:07:56;;;;;;;3.10;1.47;;;;;;;;;;4994432;28;20466;-67
2022/03/16 05:10:22;;;;;;;3.33;1.27;;;;;;;;;;4994224;28;20798;-67
2022/03/16 05:12:49;;;;;;;2.17;1.20;;;;;;;;;;4994469;28;20458;-68
2022/03/16 05:15:16;;;;;;;4.30;1.50;;;;;;;;;;4994438;28;20468;-68
2022/03/16 05:17:43;;;;;;;8.10;1.30;;;;;;;;;;4992379;28;20438;-68
2022/03/16 05:20:09;;;;;;;2.10;1.30;;;;;;;;;;4993199;28;20429;-68
2022/03/16 05:22:43;;;;;;;3.10;1.40;;;;;;;;;;4993392;28;20517;-68
2022/03/16 05:25:09;;;;;;;2.23;1.20;;;;;;;;;;4994258;28;20506;-68
2022/03/16 05:27:36;;;;;;;2.47;1.47;;;;;;;;;;4993115;28;20450;-68
2022/03/16 05:30:02;;;;;;;2.00;1.37;;;;;;;;;;4994891;28;20411;-68
2022/03/16 05:32:28;;;;;;;1.67;1.00;;;;;;;;;;4994138;28;20444;-69
2022/03/16 05:34:54;;;;;;;2.07;1.20;;;;;;;;;;4994225;28;20413;-70
2022/03/16 05:37:20;;;;;;;1.97;1.30;;;;;;;;;;4993049;28;20438;-67
2022/03/16 05:39:46;;;;;;;2.67;1.40;;;;;;;;;;4994727;28;20443;-67
2022/03/16 05:42:12;;;;;;;1.77;1.10;;;;;;;;;;4992759;28;20430;-68
2022/03/16 05:44:38;;;;;;;2.33;1.50;;;;;;;;;;4991104;28;20819;-70
2022/03/16 05:47:05;;;;;;;7.13;1.20;;;;;;;;;;4990923;28;20458;-68
2022/03/16 05:49:31;;;;;;;2.20;1.50;;;;;;;;;;4990101;28;20430;-68
2022/03/16 05:51:57;;;;;;;2.40;1.27;;;;;;;;;;4992565;28;20842;-68
2022/03/16 05:54:23;;;;;;;2.17;1.33;;;;;;;;;;4993600;28;20418;-68
2022/03/16 05:56:49;;;;;;;6.73;1.20;;;;;;;;;;4991942;28;20783;-69
2022/03/16 05:59:15;;;;;;;2.07;1.10;;;;;;;;;;4991377;28;20943;-70
2022/03/16 06:01:41;;;;;;;3.57;2.10;;;;;;;;;;4994745;28;20935;-70
2022/03/16 06:04:07;;;;;;;5.83;3.23;;;;;;;;;;4993262;28;20914;-70
2022/03/16 06:06:33;;;;;;;6.37;3.10;;;;;;;;;;4992993;28;20990;-70
2022/03/16 06:08:59;;;;;;;7.17;3.43;;;;;;;;;;4993014;28;20753;-70
2022/03/16 06:11:27;;;;;;;7.90;3.80;;;;;;;;;;4993867;28;20515;-69
2022/03/16 06:13:53;;;;;;;9.33;3.67;;;;;;;;;;4994132;28;20422;-70
2022/03/16 06:16:20;;;;;;;12.43;3.40;;;;;;;;;;4995461;28;20410;-70
2022/03/16 06:18:46;;;;;;;6.60;3.10;;;;;;;;;;5004782;28;20929;-71
2022/03/16 06:21:12;;;;;;;10.67;3.63;;;;;;;;;;5002620;28;20878;-70
2022/03/16 06:23:38;;;;;;;8.97;4.40;;;;;;;;;;4994437;28;20414;-69
2022/03/16 06:26:05;;;;;;;37.03;18.57;;;;;;;;;;5009527;28;20444;-71
2022/03/16 06:28:32;;;;;;;14.30;7.00;;;;;;;;;;5001716;28;20475;-69
2022/03/16 06:30:58;;;;;;;12.50;5.93;;;;;;;;;;5008095;28;20434;-70
2022/03/16 06:33:24;;;;;;;12.93;5.97;;;;;;;;;;4997717;28;20497;-70
2022/03/16 06:35:50;;;;;;;20.23;6.03;;;;;;;;;;4991354;28;20402;-71
2022/03/16 06:38:17;;;;;;;8.73;5.10;;;;;;;;;;4992251;28;20414;-71
2022/03/16 06:40:43;;;;;;;9.60;4.60;;;;;;;;;;4990911;28;20477;-71
2022/03/16 06:43:09;;;;;;;8.37;3.67;;;;;;;;;;4992583;28;20541;-70
2022/03/16 06:45:35;;;;;;;8.40;3.00;;;;;;;;;;4992794;28;20418;-71
2022/03/16 06:48:01;;;;;;;16.03;3.70;;;;;;;;;;4992698;28;20478;-70
2022/03/16 06:50:28;;;;;;;6.47;2.97;;;;;;;;;;4992202;28;20437;-70
2022/03/16 06:52:55;;;;;;;5.20;2.83;;;;;;;;;;4992368;28;20406;-70
2022/03/16 06:55:21;;;;;;;18.37;2.90;;;;;;;;;;4992617;28;20426;-70
2022/03/16 06:57:47;;;;;;;8.27;3.00;;;;;;;;;;4992557;28;20418;-71
2022/03/16 07:00:14;;;;;;;8.77;4.60;;;;;;;;;;4992059;28;20426;-70
2022/03/16 07:02:54;;;;;;;12.93;7.33;;;;;;;;;;4992630;28;20425;-71
2022/03/16 07:05:21;;;;;;;17.20;8.70;;;;;;;;;;4992462;28;20414;-71
2022/03/16 07:07:47;;;;;;;20.60;10.70;;;;;;;;;;4992452;28;20496;-70
2022/03/16 07:10:13;;;;;;;17.63;10.60;;;;;;;;;;4992040;28;20461;-70
2022/03/16 07:12:39;;;;;;;20.20;11.03;;;;;;;;;;4992507;28;20424;-70
2022/03/16 07:15:06;;;;;;;19.23;10.80;;;;;;;;;;4992241;28;20457;-70
2022/03/16 07:17:32;;;;;;;19.30;10.70;;;;;;;;;;4992380;28;20407;-70
2022/03/16 07:19:58;;;;;;;21.33;10.87;;;;;;;;;;4991942;28;20915;-70
2022/03/16 07:22:24;;;;;;;18.93;9.50;;;;;;;;;;4992149;28;20457;-71
2022/03/16 07:24:50;;;;;;;18.40;8.57;;;;;;;;;;4992256;28;20470;-70
2022/03/16 07:27:16;;;;;;;13.70;7.57;;;;;;;;;;4992041;28;20465;-69
2022/03/16 07:29:42;;;;;;;13.67;7.43;;;;;;;;;;4991715;28;20733;-71
2022/03/16 07:32:08;;;;;;;20.13;8.73;;;;;;;;;;4992158;28;20756;-68
2022/03/16 07:34:34;;;;;;;20.67;10.17;;;;;;;;;;4992341;28;20503;-68
2022/03/16 07:37:01;;;;;;;26.23;11.80;;;;;;;;;;4993561;28;20513;-68
2022/03/16 07:39:27;;;;;;;24.67;13.40;;;;;;;;;;4991748;28;20466;-68
2022/03/16 07:41:53;;;;;;;30.40;15.10;;;;;;;;;;4992080;28;20433;-68
2022/03/16 07:44:19;;;;;;;32.60;17.20;;;;;;;;;;4992132;28;20414;-69
2022/03/16 07:46:45;;;;;;;34.70;17.70;;;;;;;;;;4991945;28;20407;-68
2022/03/16 07:49:11;;;;;;;44.20;19.73;;;;;;;;;;4991689;28;20476;-67
2022/03/16 07:51:37;;;;;;;55.17;22.67;;;;;;;;;;4991990;28;20446;-69
2022/03/16 07:54:03;;;;;;;61.87;21.53;;;;;;;;;;4992024;28;20438;-69
2022/03/16 07:56:29;;;;;;;49.63;22.17;;;;;;;;;;4991979;28;20465;-68
2022/03/16 07:58:58;;;;;;;57.90;21.23;;;;;;;;;;4991526;28;20421;-68
2022/03/16 08:01:24;;;;;;;46.23;21.57;;;;;;;;;;4991867;28;20469;-68
2022/03/16 08:03:50;;;;;;;46.90;20.43;;;;;;;;;;4991962;28;20756;-68
2022/03/16 08:06:16;;;;;;;46.17;19.53;;;;;;;;;;4995614;28;20425;-68
2022/03/16 08:08:42;;;;;;;47.80;19.70;;;;;;;;;;4995356;28;21036;-68
2022/03/16 08:11:08;;;;;;;42.47;20.37;;;;;;;;;;4995356;28;20466;-68
2022/03/16 08:13:36;;;;;;;48.07;19.80;;;;;;;;;;4995340;28;20468;-69
2022/03/16 08:16:02;;;;;;;42.17;19.77;;;;;;;;;;4995196;28;20429;-68
2022/03/16 08:18:29;;;;;;;43.47;19.77;;;;;;;;;;4994970;28;20791;-69
2022/03/16 08:20:56;;;;;;;47.17;18.53;;;;;;;;;;4995213;28;20441;-69
2022/03/16 08:23:22;;;;;;;39.90;18.77;;;;;;;;;;4995351;28;20420;-69
2022/03/16 08:25:48;;;;;;;34.50;18.13;;;;;;;;;;4996442;28;20398;-69
2022/03/16 08:28:14;;;;;;;37.13;18.47;;;;;;;;;;4995123;28;20469;-69
2022/03/16 08:30:41;;;;;;;44.30;17.07;;;;;;;;;;4994610;28;20449;-68
2022/03/16 08:33:07;;;;;;;32.13;17.30;;;;;;;;;;4995077;28;20457;-68
2022/03/16 08:35:33;;;;;;;35.43;16.53;;;;;;;;;;4995104;28;20409;-72
2022/03/16 08:37:59;;;;;;;45.80;14.87;;;;;;;;;;4995246;28;20441;-72
2022/03/16 08:40:25;;;;;;;32.47;14.93;;;;;;;;;;4994462;28;20410;-71
2022/03/16 08:42:52;;;;;;;35.30;15.17;;;;;;;;;;4994962;28;20422;-71
2022/03/16 08:45:19;;;;;;;27.10;14.07;;;;;;;;;;4994974;28;20414;-71
2022/03/16 08:47:45;;;;;;;36.57;13.47;;;;;;;;;;4994929;28;20462;-70
2022/03/16 08:50:11;;;;;;;45.60;14.17;;;;;;;;;;4994318;28;20422;-70
2022/03/16 08:52:37;;;;;;;34.87;14.37;;;;;;;;;;4994924;28;20494;-70
2022/03/16 08:55:05;;;;;;;41.50;13.70;;;;;;;;;;4994758;28;20752;-70
2022/03/16 08:57:31;;;;;;;24.67;13.20;;;;;;;;;;4994697;28;20426;-71
2022/03/16 08:59:57;;;;;;;35.07;13.27;;;;;;;;;;4994284;28;20434;-69
2022/03/16 09:02:23;;;;;;;27.37;13.43;;;;;;;;;;4994508;28;20989;-70
2022/03/16 09:04:50;;;;;;;29.57;12.23;;;;;;;;;;4994624;28;20419;-70
2022/03/16 09:07:17;;;;;;;39.50;12.33;;;;;;;;;;4994614;28;20462;-70
2022/03/16 09:09:43;;;;;;;29.47;11.73;;;;;;;;;;4994048;28;20432;-69
2022/03/16 09:12:11;;;;;;;27.23;12.57;;;;;;;;;;4994455;28;20438;-70
2022/03/16 09:14:37;;;;;;;24.93;12.03;;;;;;;;;;4994438;28;20529;-70
2022/03/16 09:17:03;;;;;;;19.63;11.13;;;;;;;;;;5001157;28;20460;-69
2022/03/16 09:19:29;;;;;;;24.43;12.23;;;;;;;;;;5012844;28;20430;-69
2022/03/16 09:21:55;;;;;;;28.57;11.77;;;;;;;;;;5013690;28;20437;-70
2022/03/16 09:24:24;;;;;;;24.63;11.77;;;;;;;;;;5014611;28;20417;-69
2022/03/16 09:26:50;;;;;;;22.13;10.60;;;;;;;;;;5013659;28;20429;-70
2022/03/16 09:29:18;;;;;;;22.73;10.20;;;;;;;;;;4993947;28;20493;-69
2022/03/16 09:31:44;;;;;;;22.37;10.50;;;;;;;;;;4994086;28;20823;-68
2022/03/16 09:34:11;;;;;;;26.40;10.60;;;;;;;;;;4994031;28;20415;-68
2022/03/16 09:36:39;;;;;;;23.07;9.87;;;;;;;;;;4994036;28;20452;-68
2022/03/16 09:39:05;;;;;;;24.37;10.23;;;;;;;;;;4993610;28;20418;-68
2022/03/16 09:41:32;;;;;;;22.27;9.50;;;;;;;;;;4993885;28;20426;-68
2022/03/16 09:43:58;;;;;;;17.83;8.73;;;;;;;;;;4993998;28;20414;-69
2022/03/16 09:46:31;;;;;;;24.33;9.90;;;;;;;;;;4993661;28;20418;-68
2022/03/16 09:48:58;;;;;;;23.97;9.90;;;;;;;;;;4993392;28;20549;-68
2022/03/16 09:51:26;;;;;;;23.50;9.60;;;;;;;;;;4993730;28;20435;-69
2022/03/16 09:53:52;;;;;;;20.50;9.30;;;;;;;;;;4993674;28;20405;-68
2022/03/16 09:56:21;;;;;;;22.73;9.63;;;;;;;;;;4993553;28;20406;-68
2022/03/16 09:58:47;;;;;;;22.97;9.60;;;;;;;;;;5011757;28;20804;-68
2022/03/16 10:01:14;;;;;;;21.93;8.90;;;;;;;;;;5012991;28;20433;-68
2022/03/16 10:03:40;;;;;;;17.00;8.30;;;;;;;;;;5007092;28;20415;-68
2022/03/16 10:06:09;;;;;;;16.93;8.87;;;;;;;;;;5003611;28;20887;-68
2022/03/16 10:08:36;;;;;;;18.40;9.20;;;;;;;;;;5012625;28;20996;-68
2022/03/16 10:13:52;;;;;;;19.93;8.30;;;;;;;;;;4994583;28;20417;-69
2022/03/16 10:16:18;;;;;;;16.53;8.50;;;;;;;;;;4993190;28;20413;-68
2022/03/16 10:18:52;;;;;;;18.03;8.10;;;;;;;;;;4994323;28;20453;-68
2022/03/16 10:21:18;;;;;;;26.80;8.50;;;;;;;;;;4992904;28;20517;-68
2022/03/16 10:23:45;;;;;;;17.00;8.30;;;;;;;;;;4993120;28;20403;-68
2022/03/16 10:26:16;;;;;;;14.50;7.80;;;;;;;;;;4994456;28;20910;-68
2022/03/16 10:28:42;;;;;;;17.43;7.60;;;;;;;;;;4992011;28;20503;-69
2022/03/16 10:31:09;;;;;;;16.03;8.40;;;;;;;;;;4992790;28;20422;-68
2022/03/16 10:33:56;;;;;;;13.30;7.50;;;;;;;;;;4992911;28;20421;-68
2022/03/16 10:36:23;;;;;;;13.80;7.00;;;;;;;;;;5010777;28;20425;-68
2022/03/16 10:38:58;;;;;;;14.37;7.53;;;;;;;;;;4996710;28;20414;-69
2022/03/16 10:47:01;;;;;;;14.27;6.90;;;;;;;;;;5013682;28;20996;-69
2022/03/16 10:49:34;;;;;;;13.60;7.47;;;;;;;;;;5011941;28;20405;-68
2022/03/16 10:52:05;;;;;;;13.80;6.83;;;;;;;;;;5009570;28;20429;-68
2022/03/16 10:54:32;;;;;;;14.20;7.00;;;;;;;;;;4994146;28;20421;-68
2022/03/16 10:57:00;;;;;;;12.87;7.07;;;;;;;;;;4994071;28;20402;-69
2022/03/16 10:59:29;;;;;;;18.40;6.93;;;;;;;;;;4992306;28;20411;-69
2022/03/16 11:02:01;;;;;;;10.40;6.13;;;;;;;;;;4992452;28;20461;-69
2022/03/16 11:04:29;;;;;;;13.03;7.50;;;;;;;;;;4991513;28;20444;-68
2022/03/16 11:06:56;;;;;;;14.50;7.10;;;;;;;;;;4992039;28;20517;-68
2022/03/16 11:09:22;;;;;;;11.17;6.50;;;;;;;;;;4991156;28;20462;-69
2022/03/16 11:14:34;;;;;;;12.80;6.93;;;;;;;;;;4999139;28;20432;-68
2022/03/16 11:17:02;;;;;;;13.90;7.33;;;;;;;;;;5011896;28;20443;-68
2022/03/16 11:19:29;;;;;;;12.03;6.73;;;;;;;;;;5011546;28;20894;-68
2022/03/16 11:22:01;;;;;;;12.87;6.77;;;;;;;;;;5011966;28;20938;-68
2022/03/16 11:24:29;;;;;;;18.40;5.93;;;;;;;;;;5011954;28;20499;-68
2022/03/16 11:27:17;;;;;;;12.07;6.37;;;;;;;;;;5004665;28;20403;-69
2022/03/16 11:30:01;;;;;;;10.23;5.90;;;;;;;;;;4993024;28;20481;-69
2022/03/16 11:32:33;;;;;;;11.23;6.30;;;;;;;;;;4991985;28;20461;-68
2022/03/16 11:35:00;;;;;;;11.60;5.77;;;;;;;;;;4992053;28;20418;-68
2022/03/16 11:37:46;;;;;;;11.10;5.77;;;;;;;;;;4991922;28;20418;-69
2022/03/16 11:40:14;;;;;;;10.63;5.97;;;;;;;;;;4995265;28;20414;-69
2022/03/16 11:43:04;;;;;;;12.10;6.13;;;;;;;;;;4996039;28;20442;-68
2022/03/16 11:45:50;;;;;;;10.20;5.33;;;;;;;;;;4984598;28;20481;-68
2022/03/16 11:48:32;;;;;;;9.80;4.60;;;;;;;;;;4996060;28;20830;-69
2022/03/16 11:51:13;;;;;;;8.27;4.27;;;;;;;;;;4995754;28;20435;-69
2022/03/16 11:53:57;;;;;;;10.70;3.87;;;;;;;;;;4981966;28;20429;-70
2022/03/16 11:56:24;;;;;;;7.23;3.80;;;;;;;;;;4991584;28;20588;-71
2022/03/16 11:59:02;;;;;;;6.80;3.67;;;;;;;;;;4995535;28;20426;-70
2022/03/16 12:01:37;;;;;;;5.97;3.50;;;;;;;;;;4993552;28;20463;-70
2022/03/16 12:04:19;;;;;;;5.20;3.50;;;;;;;;;;4997134;28;20480;-71
2022/03/16 12:07:06;;;;;;;6.90;3.10;;;;;;;;;;4999125;28;20417;-70
2022/03/16 12:09:44;;;;;;;6.80;3.00;;;;;;;;;;4999186;28;20413;-70
2022/03/16 12:15:19;;;;;;;9.47;3.23;;;;;;;;;;5015227;28;20506;-69
2022/03/16 12:17:51;;;;;;;5.17;3.17;;;;;;;;;;5014130;28;21176;-70
2022/03/16 12:20:37;;;;;;;6.23;3.27;;;;;;;;;;5001277;28;20775;-70
2022/03/16 12:23:07;;;;;;;6.53;3.70;;;;;;;;;;4988033;28;20493;-69
2022/03/16 12:25:35;;;;;;;6.90;3.60;;;;;;;;;;4993738;28;20421;-71
2022/03/16 12:30:48;;;;;;;7.20;2.70;;;;;;;;;;4995139;28;20429;-70
2022/03/16 12:33:22;;;;;;;7.63;3.30;;;;;;;;;;4992668;28;20426;-70
2022/03/16 12:36:11;;;;;;;9.27;2.83;;;;;;;;;;4989802;28;20438;-70
2022/03/16 12:38:39;;;;;;;5.43;3.13;;;;;;;;;;4986788;28;20510;-68
2022/03/16 12:43:53;;;;;;;6.70;2.70;;;;;;;;;;4998052;28;20472;-70
2022/03/16 12:46:25;;;;;;;6.13;3.37;;;;;;;;;;4994115;28;20422;-70
2022/03/16 12:48:54;;;;;;;4.60;3.03;;;;;;;;;;4993197;28;20962;-70
2022/03/16 12:51:37;;;;;;;4.97;2.70;;;;;;;;;;4993072;28;20450;-69
2022/03/16 12:54:05;;;;;;;6.10;2.97;;;;;;;;;;4996841;28;20430;-69
2022/03/16 12:56:31;;;;;;;4.50;2.50;;;;;;;;;;5013213;28;20920;-71
2022/03/16 12:58:57;;;;;;;5.43;3.33;;;;;;;;;;5012832;28;20910;-71
2022/03/16 13:01:25;;;;;;;5.57;3.13;;;;;;;;;;5014453;28;20543;-70
2022/03/16 13:04:04;;;;;;;4.67;3.00;;;;;;;;;;5014681;28;20398;-70
2022/03/16 13:06:33;;;;;;;6.10;2.80;;;;;;;;;;5012464;28;20552;-70
2022/03/16 13:08:59;;;;;;;5.90;3.20;;;;;;;;;;4990595;28;20466;-69
2022/03/16 13:11:28;;;;;;;18.53;3.60;;;;;;;;;;5001193;28;20466;-69
2022/03/16 13:14:06;;;;;;;5.87;3.70;;;;;;;;;;5009247;28;20434;-73
2022/03/16 13:16:34;;;;;;;9.67;3.50;;;;;;;;;;5003403;28;20461;-71
2022/03/16 13:19:02;;;;;;;6.30;3.57;;;;;;;;;;5013389;28;20898;-71
2022/03/16 13:21:29;;;;;;;8.83;3.90;;;;;;;;;;4997463;28;20530;-71
2022/03/16 13:24:03;;;;;;;6.33;3.03;;;;;;;;;;4992267;28;20459;-70
2022/03/16 13:26:29;;;;;;;6.80;2.70;;;;;;;;;;4994015;28;20413;-71
2022/03/16 13:29:00;;;;;;;6.13;3.00;;;;;;;;;;4991835;28;20830;-70
2022/03/16 13:31:30;;;;;;;3.73;2.73;;;;;;;;;;4992742;28;20447;-71
2022/03/16 13:34:01;;;;;;;5.03;2.93;;;;;;;;;;4992988;28;20776;-71
2022/03/16 13:36:32;;;;;;;5.10;2.90;;;;;;;;;;4993147;28;20437;-70
2022/03/16 13:38:59;;;;;;;5.60;2.70;;;;;;;;;;4991959;28;20907;-70
2022/03/16 13:41:25;;;;;;;6.30;2.60;;;;;;;;;;4992586;28;20453;-70
2022/03/16 13:44:06;;;;;;;3.77;2.33;;;;;;;;;;4992869;28;20473;-71
2022/03/16 13:46:39;;;;;;;4.50;2.40;;;;;;;;;;4992793;28;20417;-70
2022/03/16 13:49:14;;;;;;;4.10;2.47;;;;;;;;;;4993094;28;20462;-70
2022/03/16 13:52:00;;;;;;;5.60;2.83;;;;;;;;;;5009973;28;20531;-69
2022/03/16 13:54:27;;;;;;;11.53;2.87;;;;;;;;;;5006235;28;20501;-69
2022/03/16 13:56:54;;;;;;;3.60;2.37;;;;;;;;;;4994166;28;20950;-69
2022/03/16 13:59:20;;;;;;;6.60;2.40;;;;;;;;;;5006263;28;20418;-70
2022/03/16 14:01:46;;;;;;;3.00;2.13;;;;;;;;;;5000055;28;20426;-69
2022/03/16 14:04:21;;;;;;;5.43;2.63;;;;;;;;;;5010680;28;20421;-69
2022/03/16 14:06:48;;;;;;;4.93;2.50;;;;;;;;;;4994078;28;20480;-70
2022/03/16 14:09:14;;;;;;;5.90;2.63;;;;;;;;;;4992704;28;20431;-70
2022/03/16 14:11:40;;;;;;;3.00;2.20;;;;;;;;;;4993149;28;20431;-70
2022/03/16 14:14:12;;;;;;;3.80;2.43;;;;;;;;;;4991601;28;20434;-70
2022/03/16 14:16:40;;;;;;;3.47;2.00;;;;;;;;;;4993122;28;20418;-70
2022/03/16 14:19:26;;;;;;;6.80;2.80;;;;;;;;;;4993014;28;20513;-70
2022/03/16 14:21:52;;;;;;;4.00;2.20;;;;;;;;;;4992954;28;20946;-70
2022/03/16 14:24:25;;;;;;;4.77;2.57;;;;;;;;;;5152458;27;21089;-70
2022/03/16 14:26:52;;;;;;;3.43;2.17;;;;;;;;;;5113102;28;20409;-70
2022/03/16 14:29:19;;;;;;;3.60;2.10;;;;;;;;;;5112603;28;20428;-70
2022/03/16 14:31:46;;;;;;;3.50;2.23;;;;;;;;;;5099030;28;20466;-70
2022/03/16 14:34:12;;;;;;;3.27;2.10;;;;;;;;;;5092521;28;20459;-70
2022/03/16 14:36:38;;;;;;;3.70;2.40;;;;;;;;;;5092487;28;20402;-70
2022/03/16 14:39:05;;;;;;;3.50;2.23;;;;;;;;;;5091879;28;20749;-71
2022/03/16 14:41:31;;;;;;;3.17;2.07;;;;;;;;;;5092138;28;20417;-70
2022/03/16 14:43:57;;;;;;;5.90;2.10;;;;;;;;;;5092191;28;20445;-69
2022/03/16 14:46:23;;;;;;;2.90;2.00;;;;;;;;;;5092083;28;20397;-69
2022/03/16 14:48:49;;;;;;;2.67;1.87;;;;;;;;;;5092002;28;20522;-70
2022/03/16 14:51:15;;;;;;;4.60;2.50;;;;;;;;;;5110050;28;20409;-69
2022/03/16 14:53:41;;;;;;;4.43;2.30;;;;;;;;;;5092129;28;20500;-70
2022/03/16 14:56:07;;;;;;;3.47;2.40;;;;;;;;;;5091807;28;20462;-69
2022/03/16 14:58:33;;;;;;;3.73;2.27;;;;;;;;;;5091685;28;20409;-70